KALS/ALS METAR and TAF weather

Enter ICAO airport designator
Station Type Date Time Source
KALS METAR 2020/07/04 01:52 UTC NOAA

KALS 040152Z AUTO 17006KT 10SM FEW095 OVC120 23/05 A3029 RMK AO2 SLP154 T02280050


Station Type Date Time Source
KALS Decoded METAR 2020/07/04 01:52 UTC NOAA

SAN LUIS VALLEY REGIONAL, CO, United States (KALS) 37-26N 105-52W 2299M
Jul 03, 2020 - 09:52 PM EDT / 2020.07.04 0152 UTC
Wind: from the S (170 degrees) at 7 MPH (6 KT):0
Visibility: 10 mile(s):0
Sky conditions: overcast
Temperature: 73.0 F (22.8 C)
Dew Point: 41.0 F (5.0 C)
Relative Humidity: 31%
Pressure (altimeter): 30.29 in. Hg (1025 hPa)
ob: KALS 040152Z AUTO 17006KT 10SM FEW095 OVC120 23/05 A3029 RMK AO2 SLP154 T02280050
cycle: 2

Station Type Date Time Source
KALS TAF 2020/07/04 00:24 UTC NOAA

TAF
AMD KALS 040022Z 0400/0424 21012G22KT P6SM FEW110
FM040200 VRB06KT P6SM FEW150
FM042000 27015G25KT P6SM VCTS FEW100CB

Example: see airport list